createdAt,value
2018-07-12T14:47:01.083Z,98547
2018-07-12T14:47:12.524Z,98541
2018-07-12T14:47:23.607Z,98541
2018-07-12T14:47:34.721Z,98541
2018-07-12T14:47:45.830Z,98549
2018-07-12T14:47:56.950Z,98558
2018-07-12T14:48:08.032Z,98541
2018-07-12T14:48:19.131Z,98538
2018-07-12T14:48:30.227Z,98541
2018-07-12T14:48:41.282Z,98535
2018-07-12T14:48:52.323Z,98530
2018-07-12T14:49:03.453Z,98544
2018-07-12T14:49:14.497Z,98535
2018-07-12T14:49:26.609Z,98535
2018-07-12T14:49:37.735Z,98544
2018-07-12T14:49:48.820Z,98541
2018-07-12T14:49:59.782Z,98535
2018-07-12T14:50:14.127Z,98530
2018-07-12T14:50:25.182Z,98543
2018-07-12T14:50:36.220Z,98527
2018-07-12T14:50:50.290Z,98540
2018-07-12T14:51:01.302Z,98535
2018-07-12T14:51:12.472Z,98535
2018-07-12T14:51:23.711Z,98540
2018-07-12T14:51:34.863Z,98546
2018-07-12T14:51:45.948Z,98527
2018-07-12T14:51:56.986Z,98537
2018-07-12T14:52:10.863Z,98546
2018-07-12T14:52:21.971Z,98546
2018-07-12T14:52:33.110Z,98530
2018-07-12T14:52:44.225Z,98534
2018-07-12T14:52:55.823Z,98537
2018-07-12T14:53:06.891Z,98530
2018-07-12T14:53:19.772Z,98543
2018-07-12T14:53:30.863Z,98540
2018-07-12T14:53:42.172Z,98549
2018-07-12T14:53:57.053Z,98552
2018-07-12T14:54:12.269Z,98540
2018-07-12T14:54:24.179Z,98549
2018-07-12T14:54:36.744Z,98549
2018-07-12T14:54:48.155Z,98546
2018-07-12T14:54:59.589Z,98546
2018-07-12T14:55:10.715Z,98540
2018-07-12T14:55:21.859Z,98549
2018-07-12T14:55:34.118Z,98546
2018-07-12T14:55:45.269Z,98549
2018-07-12T14:55:59.220Z,98543
2018-07-12T14:56:10.268Z,98537
2018-07-12T14:56:21.394Z,98537
2018-07-12T14:56:32.547Z,98543
2018-07-12T14:56:44.826Z,98537
2018-07-12T14:56:55.887Z,98540
2018-07-12T14:57:09.799Z,98534
2018-07-12T14:57:20.813Z,98536
2018-07-12T14:57:31.881Z,98534
2018-07-12T14:57:42.965Z,98529
2018-07-12T14:57:54.082Z,98539
2018-07-12T14:58:10.938Z,98545
2018-07-12T14:58:22.086Z,98528
2018-07-12T14:58:36.142Z,98542
2018-07-12T14:58:50.208Z,98545
2018-07-12T14:59:01.331Z,98550
2018-07-12T14:59:12.553Z,98528
2018-07-12T14:59:23.730Z,98542
2018-07-12T14:59:34.912Z,98528
2018-07-12T14:59:49.982Z,98525
2018-07-12T15:00:01.090Z,98522
2018-07-12T15:00:12.276Z,98525
2018-07-12T15:00:23.492Z,98531
2018-07-12T15:00:34.504Z,98531
2018-07-12T15:00:45.617Z,98517
2018-07-12T15:00:56.765Z,98539
2018-07-12T15:01:07.983Z,98520
2018-07-12T15:01:20.173Z,98529
2018-07-12T15:01:31.351Z,98542
2018-07-12T15:01:42.654Z,98542
2018-07-12T15:01:53.646Z,98539
2018-07-12T15:02:04.691Z,98531
2018-07-12T15:02:16.036Z,98536
2018-07-12T15:02:27.148Z,98536
2018-07-12T15:02:38.579Z,98545
2018-07-12T15:02:49.704Z,98536
2018-07-12T15:03:00.761Z,98536
2018-07-12T15:03:14.743Z,98528
2018-07-12T15:03:25.880Z,98528
2018-07-12T15:03:36.948Z,98536
2018-07-12T15:03:48.189Z,98544
2018-07-12T15:03:59.213Z,98539
2018-07-12T15:04:10.446Z,98528
2018-07-12T15:04:21.573Z,98536
2018-07-12T15:04:32.647Z,98535
2018-07-12T15:04:43.816Z,98544
2018-07-12T15:04:57.804Z,98525
2018-07-12T15:05:12.593Z,98524
2018-07-12T15:05:23.702Z,98527
2018-07-12T15:05:34.858Z,98527
2018-07-12T15:05:45.994Z,98516
2018-07-12T15:05:57.204Z,98530
2018-07-12T15:06:08.238Z,98535
2018-07-12T15:06:19.391Z,98543
2018-07-12T15:06:30.532Z,98543
2018-07-12T15:06:41.720Z,98537
2018-07-12T15:06:56.727Z,98530
2018-07-12T15:07:07.922Z,98537
2018-07-12T15:07:19.075Z,98534
2018-07-12T15:07:30.388Z,98537
2018-07-12T15:07:41.791Z,98534
2018-07-12T15:07:52.914Z,98540
2018-07-12T15:08:04.139Z,98529
2018-07-12T15:08:15.294Z,98534
2018-07-12T15:08:29.278Z,98520
2018-07-12T15:08:42.067Z,98540
2018-07-12T15:08:53.304Z,98521
2018-07-12T15:09:04.341Z,98527
2018-07-12T15:09:16.211Z,98518
2018-07-12T15:09:27.329Z,98534
2018-07-12T15:09:38.425Z,98518
2018-07-12T15:09:50.020Z,98518
2018-07-12T15:10:01.170Z,98520
2018-07-12T15:10:12.398Z,98517
2018-07-12T15:10:24.629Z,98534
2018-07-12T15:10:35.933Z,98526
2018-07-12T15:10:47.063Z,98545
2018-07-12T15:11:01.180Z,98539
2018-07-12T15:11:13.016Z,98529
2018-07-12T15:11:24.298Z,98529
2018-07-12T15:11:35.476Z,98517
2018-07-12T15:11:46.779Z,98537
2018-07-12T15:12:01.700Z,98534
2018-07-12T15:12:12.997Z,98529
2018-07-12T15:12:24.773Z,98538
2018-07-12T15:12:36.991Z,98525
2018-07-12T15:12:48.677Z,98538
2018-07-12T15:13:00.198Z,98541
2018-07-12T15:13:11.428Z,98544
2018-07-12T15:13:22.568Z,98535
2018-07-12T15:13:33.810Z,98535
2018-07-12T15:13:48.747Z,98530
2018-07-12T15:13:59.949Z,98527
2018-07-12T15:14:11.011Z,98522
2018-07-12T15:14:22.223Z,98535
2018-07-12T15:14:33.447Z,98538
2018-07-12T15:14:44.611Z,98541
2018-07-12T15:14:55.752Z,98553
2018-07-12T15:15:06.892Z,98541
2018-07-12T15:15:18.125Z,98547
2018-07-12T15:15:29.293Z,98535
2018-07-12T15:15:40.468Z,98524
2018-07-12T15:15:51.690Z,98535
2018-07-12T15:16:03.866Z,98527
2018-07-12T15:16:15.452Z,98538
2018-07-12T15:16:26.600Z,98527
2018-07-12T15:16:37.566Z,98527
2018-07-12T15:16:48.685Z,98540
2018-07-12T15:17:00.286Z,98524
2018-07-12T15:17:11.774Z,98527
2018-07-12T15:17:22.909Z,98530
2018-07-12T15:17:33.983Z,98534
2018-07-12T15:17:45.362Z,98524
2018-07-12T15:17:56.715Z,98527
2018-07-12T15:18:07.961Z,98526
2018-07-12T15:18:22.802Z,98534
2018-07-12T15:18:38.295Z,98534
2018-07-12T15:18:49.402Z,98530
2018-07-12T15:19:00.573Z,98518
2018-07-12T15:19:12.071Z,98529
2018-07-12T15:19:24.154Z,98529
2018-07-12T15:19:35.416Z,98534
2018-07-12T15:19:46.521Z,98537
2018-07-12T15:19:57.915Z,98534
2018-07-12T15:20:09.239Z,98543
2018-07-12T15:20:21.284Z,98541
2018-07-12T15:20:32.423Z,98541
2018-07-12T15:20:43.614Z,98540
2018-07-12T15:20:54.704Z,98524
2018-07-12T15:21:10.521Z,98530
2018-07-12T15:21:21.556Z,98535
2018-07-12T15:21:32.541Z,98524
2018-07-12T15:21:43.719Z,98524
2018-07-12T15:21:54.877Z,98530
2018-07-12T15:22:06.026Z,98524
2018-07-12T15:22:17.147Z,98519
2018-07-12T15:22:28.335Z,98530
2018-07-12T15:22:39.558Z,98535
2018-07-12T15:22:51.298Z,98524
2018-07-12T15:23:02.595Z,98524
2018-07-12T15:23:14.334Z,98527
2018-07-12T15:23:26.550Z,98530
2018-07-12T15:23:38.715Z,98527
2018-07-12T15:23:49.876Z,98524
2018-07-12T15:24:00.975Z,98524
2018-07-12T15:24:15.940Z,98526
2018-07-12T15:24:26.989Z,98523
2018-07-12T15:24:38.250Z,98517
2018-07-12T15:24:50.422Z,98523
2018-07-12T15:25:01.512Z,98523
2018-07-12T15:25:12.631Z,98528
2018-07-12T15:25:23.753Z,98525
2018-07-12T15:25:35.433Z,98522
2018-07-12T15:25:46.644Z,98528
2018-07-12T15:25:57.831Z,98516
2018-07-12T15:26:08.908Z,98531
2018-07-12T15:26:20.063Z,98525
2018-07-12T15:26:33.912Z,98522
2018-07-12T15:26:44.971Z,98527
2018-07-12T15:26:56.207Z,98521
2018-07-12T15:27:07.255Z,98524
2018-07-12T15:27:18.333Z,98521
2018-07-12T15:27:29.367Z,98518
2018-07-12T15:27:43.435Z,98515
2018-07-12T15:27:54.650Z,98527
2018-07-12T15:28:05.936Z,98521
2018-07-12T15:28:16.819Z,98518
2018-07-12T15:28:27.993Z,98529
2018-07-12T15:28:42.052Z,98518
2018-07-12T15:28:53.219Z,98520
2018-07-12T15:29:04.350Z,98534
2018-07-12T15:29:15.838Z,98517
2018-07-12T15:29:27.034Z,98529
2018-07-12T15:29:38.237Z,98517
2018-07-12T15:29:49.303Z,98529
2018-07-12T15:30:00.506Z,98517
2018-07-12T15:30:11.681Z,98520
2018-07-12T15:30:25.692Z,98511
2018-07-12T15:30:36.867Z,98520
2018-07-12T15:30:48.074Z,98517
2018-07-12T15:30:59.244Z,98517
2018-07-12T15:31:12.787Z,98523
2018-07-12T15:31:23.916Z,98514
2018-07-12T15:31:35.097Z,98519
2018-07-12T15:31:46.151Z,98516
2018-07-12T15:31:57.192Z,98517
2018-07-12T15:32:09.265Z,98514
2018-07-12T15:32:20.430Z,98520
2018-07-12T15:32:31.519Z,98519
2018-07-12T15:32:42.710Z,98525
2018-07-12T15:32:53.833Z,98505
2018-07-12T15:33:07.821Z,98519
2018-07-12T15:33:18.836Z,98513
2018-07-12T15:33:33.861Z,98516
2018-07-12T15:33:44.946Z,98519
2018-07-12T15:33:56.079Z,98513
2018-07-12T15:34:07.169Z,98510
2018-07-12T15:34:18.149Z,98510
2018-07-12T15:34:29.173Z,98521
2018-07-12T15:34:40.393Z,98521
2018-07-12T15:34:51.552Z,98518
2018-07-12T15:35:02.783Z,98527
2018-07-12T15:35:14.068Z,98518
2018-07-12T15:35:25.213Z,98535
2018-07-12T15:35:36.354Z,98515
2018-07-12T15:35:47.430Z,98524
2018-07-12T15:35:58.555Z,98530
2018-07-12T15:36:12.539Z,98518
2018-07-12T15:36:23.606Z,98521
2018-07-12T15:36:38.484Z,98521
2018-07-12T15:36:49.522Z,98521
2018-07-12T15:37:00.943Z,98527
2018-07-12T15:37:15.056Z,98521
2018-07-12T15:37:26.126Z,98535
2018-07-12T15:37:37.092Z,98516
2018-07-12T15:37:48.287Z,98524
2018-07-12T15:37:59.391Z,98524
2018-07-12T15:38:10.568Z,98516
2018-07-12T15:38:21.694Z,98518
2018-07-12T15:38:32.835Z,98530
2018-07-12T15:38:43.965Z,98521
2018-07-12T15:38:55.019Z,98521
2018-07-12T15:39:06.123Z,98506
2018-07-12T15:39:17.268Z,98527
2018-07-12T15:39:28.443Z,98515
2018-07-12T15:39:39.842Z,98515
2018-07-12T15:39:50.964Z,98524
2018-07-12T15:40:01.970Z,98515
2018-07-12T15:40:14.497Z,98534
2018-07-12T15:40:25.581Z,98518
2018-07-12T15:40:36.646Z,98515
2018-07-12T15:40:47.761Z,98518
2018-07-12T15:40:58.843Z,98515
2018-07-12T15:41:10.624Z,98514
2018-07-12T15:41:21.709Z,98511
2018-07-12T15:41:32.930Z,98508
2018-07-12T15:41:44.027Z,98539
2018-07-12T15:41:55.070Z,98517
2018-07-12T15:42:12.813Z,98523
2018-07-12T15:42:23.864Z,98514
2018-07-12T15:42:37.795Z,98524
2018-07-12T15:42:51.819Z,98524
2018-07-12T15:43:02.955Z,98512
2018-07-12T15:43:16.906Z,98521
2018-07-12T15:43:30.964Z,98543
2018-07-12T15:43:42.052Z,98524
2018-07-12T15:43:53.113Z,98518
2018-07-12T15:44:04.194Z,98515
2018-07-12T15:44:15.351Z,98524
2018-07-12T15:44:29.313Z,98524
2018-07-12T15:44:40.544Z,98521
2018-07-12T15:44:51.672Z,98518
2018-07-12T15:45:02.831Z,98520
2018-07-12T15:45:16.970Z,98526
2018-07-12T15:45:28.038Z,98517
2018-07-12T15:45:39.098Z,98529
2018-07-12T15:45:50.129Z,98529
2018-07-12T15:46:01.147Z,98523
2018-07-12T15:46:12.862Z,98514
2018-07-12T15:46:23.859Z,98523
2018-07-12T15:46:34.926Z,98520
2018-07-12T15:46:45.967Z,98522
2018-07-12T15:46:57.053Z,98511
2018-07-12T15:47:08.204Z,98502
2018-07-12T15:47:22.187Z,98519
2018-07-12T15:47:33.194Z,98513
2018-07-12T15:47:44.167Z,98525
2018-07-12T15:47:55.077Z,98522
2018-07-12T15:48:06.076Z,98519
2018-07-12T15:48:20.004Z,98524
2018-07-12T15:48:31.080Z,98524
2018-07-12T15:48:42.168Z,98521
2018-07-12T15:48:53.208Z,98512
2018-07-12T15:49:04.767Z,98521
2018-07-12T15:49:15.794Z,98524
2018-07-12T15:49:26.827Z,98509
2018-07-12T15:49:37.801Z,98515
2018-07-12T15:49:48.880Z,98524
2018-07-12T15:49:59.996Z,98511
2018-07-12T15:50:14.410Z,98520
2018-07-12T15:50:25.609Z,98523
2018-07-12T15:50:36.668Z,98517
2018-07-12T15:50:47.678Z,98526
2018-07-12T15:50:58.824Z,98520
2018-07-12T15:51:10.142Z,98517
2018-07-12T15:51:21.246Z,98514
2018-07-12T15:51:32.429Z,98523
2018-07-12T15:51:43.559Z,98528
2018-07-12T15:51:57.504Z,98520
2018-07-12T15:52:08.604Z,98525
2018-07-12T15:52:19.587Z,98525
2018-07-12T15:52:30.657Z,98531
2018-07-12T15:52:41.886Z,98519
2018-07-12T15:52:52.944Z,98522
2018-07-12T15:53:03.899Z,98530
2018-07-12T15:53:14.959Z,98522
2018-07-12T15:53:28.865Z,98524
2018-07-12T15:53:39.901Z,98524
2018-07-12T15:53:50.968Z,98518
2018-07-12T15:54:02.066Z,98518
2018-07-12T15:54:13.123Z,98521
2018-07-12T15:54:24.199Z,98515
2018-07-12T15:54:35.270Z,98520
2018-07-12T15:54:46.467Z,98520
2018-07-12T15:54:57.714Z,98529
2018-07-12T15:55:11.836Z,98523
2018-07-12T15:55:22.974Z,98520
2018-07-12T15:55:34.145Z,98529
2018-07-12T15:55:45.291Z,98528
2018-07-12T15:55:56.428Z,98531
2018-07-12T15:56:10.359Z,98531
2018-07-12T15:56:21.450Z,98525
2018-07-12T15:56:32.514Z,98528
2018-07-12T15:56:43.765Z,98519
2018-07-12T15:56:55.402Z,98519
2018-07-12T15:57:06.672Z,98522
2018-07-12T15:57:17.816Z,98522
2018-07-12T15:57:29.017Z,98530
2018-07-12T15:57:40.540Z,98522
2018-07-12T15:57:51.700Z,98516
2018-07-12T15:58:02.869Z,98522
2018-07-12T15:58:14.090Z,98527
2018-07-12T15:58:28.842Z,98527
2018-07-12T15:58:39.844Z,98541
2018-07-12T15:58:51.051Z,98535
2018-07-12T15:59:02.049Z,98525
2018-07-12T15:59:13.175Z,98528
2018-07-12T15:59:27.090Z,98522
2018-07-12T15:59:38.171Z,98524
2018-07-12T15:59:49.224Z,98519
2018-07-12T16:00:06.136Z,98535
2018-07-12T16:00:17.265Z,98521
2018-07-12T16:00:29.455Z,98527
2018-07-12T16:00:43.433Z,98525
2018-07-12T16:00:54.566Z,98527
2018-07-12T16:01:05.544Z,98521
2018-07-12T16:01:16.686Z,98524
2018-07-12T16:01:27.787Z,98521
2018-07-12T16:01:38.875Z,98538
2018-07-12T16:01:49.923Z,98524
2018-07-12T16:02:01.081Z,98535
2018-07-12T16:02:12.358Z,98539
2018-07-12T16:02:23.392Z,98528
2018-07-12T16:02:34.564Z,98528
2018-07-12T16:02:45.636Z,98525
2018-07-12T16:02:57.088Z,98525
2018-07-12T16:03:08.749Z,98545
2018-07-12T16:03:19.812Z,98531
2018-07-12T16:03:30.930Z,98528
2018-07-12T16:03:42.015Z,98547
2018-07-12T16:03:53.109Z,98538
2018-07-12T16:04:04.243Z,98528
2018-07-12T16:04:15.220Z,98531
2018-07-12T16:04:26.306Z,98531
2018-07-12T16:04:37.352Z,98536
2018-07-12T16:04:48.443Z,98544
2018-07-12T16:04:59.597Z,98542
2018-07-12T16:05:10.666Z,98528
2018-07-12T16:05:21.647Z,98539
2018-07-12T16:05:32.727Z,98539
2018-07-12T16:05:43.931Z,98534
2018-07-12T16:05:55.481Z,98529
2018-07-12T16:06:06.602Z,98540
2018-07-12T16:06:21.420Z,98540
2018-07-12T16:06:32.427Z,98542
2018-07-12T16:06:43.491Z,98542
2018-07-12T16:06:54.492Z,98536
2018-07-12T16:07:06.001Z,98539
2018-07-12T16:07:17.081Z,98539
2018-07-12T16:07:28.173Z,98536
2018-07-12T16:07:39.314Z,98545
2018-07-12T16:07:50.362Z,98531
2018-07-12T16:08:01.450Z,98541
2018-07-12T16:08:16.176Z,98527
2018-07-12T16:08:30.146Z,98527
2018-07-12T16:08:41.218Z,98535
2018-07-12T16:08:52.260Z,98546
2018-07-12T16:09:03.281Z,98530
2018-07-12T16:09:14.352Z,98543
2018-07-12T16:09:25.356Z,98541
2018-07-12T16:09:36.488Z,98529
2018-07-12T16:09:47.465Z,98538
2018-07-12T16:09:58.487Z,98542
2018-07-12T16:10:12.538Z,98531
2018-07-12T16:10:23.565Z,98544
2018-07-12T16:10:34.641Z,98535
2018-07-12T16:10:45.642Z,98535
2018-07-12T16:10:56.704Z,98538
2018-07-12T16:11:07.708Z,98537
2018-07-12T16:11:18.810Z,98527
2018-07-12T16:11:30.047Z,98529
2018-07-12T16:11:41.061Z,98543
2018-07-12T16:11:52.117Z,98539
2018-07-12T16:12:03.215Z,98539
2018-07-12T16:12:21.716Z,98536
